Roosevelt, Washington
Current Conditions -  °F | °C
As of 12:53 AM on Saturday 25 Oct 2014 (Local Time) from KHRI Reporting Station
Overcast Overcast  
Wind Chill: 47°   Ceiling: 2000
Heat Index: 49°   Visibility: 10mi
Dew Point: 46°   Wind: 5mph
Humidity: 90%   Direction: 180°S
Pressure: 29.82"   Gusts: NA
Location:  45.74°N, 120.21°W
Report Text: KHRI 250753Z AUTO 18004KT 10SM OVC020 09/08 A2982 RMK AO2 SLP097 T00940078 401500078
Loading
Personal Weather Stations






























Interactive Weather Map
Tropical Storm Tracking
New forecast layout! Learn more

10-Day Weather Forecast

Advertisements
Track Severe Weather on mobile